Schedule Details


Flight Number: CTN674
Departure: Zemunik (LDZD) at 15:25
Arrival: Pula (LDPL) at 16:00
Route: EBITA N606 LOS

Weather Information
LDZD 191200Z 22006KT 190V290 9999 FEW047 BKN065 13/04 Q1018 NOSIG
LDPL 191200Z 27006KT 230V290 9999 FEW055 12/06 Q1018 NOSIG
Schedule Frequency

Route Map